sensor_id;sensor_type;location;lat;lon;timestamp;temperature;humidity
3208;DHT22;1616;52.394;9.756;2022-12-18T00:01:18;-4.50;1.00
3208;DHT22;1616;52.394;9.756;2022-12-18T00:03:45;-4.50;1.00
3208;DHT22;1616;52.394;9.756;2022-12-18T00:06:11;-4.40;1.00
3208;DHT22;1616;52.394;9.756;2022-12-18T00:08:37;-4.40;1.00
3208;DHT22;1616;52.394;9.756;2022-12-18T00:11:12;-4.40;1.00
3208;DHT22;1616;52.394;9.756;2022-12-18T00:13:38;-4.30;1.00
3208;DHT22;1616;52.394;9.756;2022-12-18T00:16:09;-4.30;1.00
3208;DHT22;1616;52.394;9.756;2022-12-18T00:18:36;-4.30;1.00
3208;DHT22;1616;52.394;9.756;2022-12-18T00:21:04;-4.30;1.00
3208;DHT22;1616;52.394;9.756;2022-12-18T00:23:31;-4.30;1.00
3208;DHT22;1616;52.394;9.756;2022-12-18T00:26:01;-4.40;1.00
3208;DHT22;1616;52.394;9.756;2022-12-18T00:28:27;-4.30;1.00
3208;DHT22;1616;52.394;9.756;2022-12-18T00:31:11;-4.30;1.00
3208;DHT22;1616;52.394;9.756;2022-12-18T00:33:37;-4.30;1.00
3208;DHT22;1616;52.394;9.756;2022-12-18T00:36:24;-4.20;1.00
3208;DHT22;1616;52.394;9.756;2022-12-18T00:38:50;-4.30;1.00
3208;DHT22;1616;52.394;9.756;2022-12-18T00:41:17;-4.30;1.00
3208;DHT22;1616;52.394;9.756;2022-12-18T00:44:03;-4.30;1.00
3208;DHT22;1616;52.394;9.756;2022-12-18T00:46:29;-4.20;1.00
3208;DHT22;1616;52.394;9.756;2022-12-18T00:48:55;-4.30;1.00
3208;DHT22;1616;52.394;9.756;2022-12-18T00:51:21;-4.30;1.00
3208;DHT22;1616;52.394;9.756;2022-12-18T00:53:46;-4.40;1.00
3208;DHT22;1616;52.394;9.756;2022-12-18T00:56:12;-4.40;1.00
3208;DHT22;1616;52.394;9.756;2022-12-18T00:58:38;-4.40;1.00
3208;DHT22;1616;52.394;9.756;2022-12-18T01:01:05;-4.40;1.00
3208;DHT22;1616;52.394;9.756;2022-12-18T01:03:30;-4.30;1.00
3208;DHT22;1616;52.394;9.756;2022-12-18T01:05:56;-4.40;1.00
3208;DHT22;1616;52.394;9.756;2022-12-18T01:08:22;-4.40;1.00
3208;DHT22;1616;52.394;9.756;2022-12-18T01:10:48;-4.40;1.00
3208;DHT22;1616;52.394;9.756;2022-12-18T01:13:14;-4.40;1.00
3208;DHT22;1616;52.394;9.756;2022-12-18T01:15:48;-4.50;1.00
3208;DHT22;1616;52.394;9.756;2022-12-18T01:18:14;-4.50;1.00
3208;DHT22;1616;52.394;9.756;2022-12-18T01:20:39;-4.50;1.00
3208;DHT22;1616;52.394;9.756;2022-12-18T01:23:06;-4.50;1.00
3208;DHT22;1616;52.394;9.756;2022-12-18T01:25:32;-4.50;1.00
3208;DHT22;1616;52.394;9.756;2022-12-18T01:27:58;-4.50;1.00
3208;DHT22;1616;52.394;9.756;2022-12-18T01:30:24;-4.50;1.00
3208;DHT22;1616;52.394;9.756;2022-12-18T01:32:53;-4.50;1.00
3208;DHT22;1616;52.394;9.756;2022-12-18T01:35:18;-4.50;1.00
3208;DHT22;1616;52.394;9.756;2022-12-18T01:37:44;-4.50;1.00
3208;DHT22;1616;52.394;9.756;2022-12-18T01:40:10;-4.50;1.00
3208;DHT22;1616;52.394;9.756;2022-12-18T01:42:36;-4.50;1.00
3208;DHT22;1616;52.394;9.756;2022-12-18T01:50:17;-4.50;1.00
3208;DHT22;1616;52.394;9.756;2022-12-18T01:52:51;-4.40;1.00
3208;DHT22;1616;52.394;9.756;2022-12-18T01:55:22;-4.40;1.00
3208;DHT22;1616;52.394;9.756;2022-12-18T01:57:52;-4.50;1.00
3208;DHT22;1616;52.394;9.756;2022-12-18T02:00:21;-4.50;1.00
3208;DHT22;1616;52.394;9.756;2022-12-18T02:02:47;-4.50;1.00
3208;DHT22;1616;52.394;9.756;2022-12-18T02:05:17;-4.50;1.00
3208;DHT22;1616;52.394;9.756;2022-12-18T02:07:51;-4.50;1.00
3208;DHT22;1616;52.394;9.756;2022-12-18T02:10:56;-4.50;1.00
3208;DHT22;1616;52.394;9.756;2022-12-18T02:16:39;-4.50;1.00
3208;DHT22;1616;52.394;9.756;2022-12-18T02:25:19;-4.60;1.00
3208;DHT22;1616;52.394;9.756;2022-12-18T02:27:49;-4.60;1.00
3208;DHT22;1616;52.394;9.756;2022-12-18T02:30:17;-4.60;1.00
3208;DHT22;1616;52.394;9.756;2022-12-18T02:32:49;-4.60;1.00
3208;DHT22;1616;52.394;9.756;2022-12-18T02:35:25;-4.60;1.00
3208;DHT22;1616;52.394;9.756;2022-12-18T02:37:53;-4.60;1.00
3208;DHT22;1616;52.394;9.756;2022-12-18T02:40:21;-4.60;1.00
3208;DHT22;1616;52.394;9.756;2022-12-18T02:42:47;-4.60;1.00
3208;DHT22;1616;52.394;9.756;2022-12-18T02:45:13;-4.70;1.00
3208;DHT22;1616;52.394;9.756;2022-12-18T02:47:45;-4.70;1.00
3208;DHT22;1616;52.394;9.756;2022-12-18T02:50:36;-4.70;1.00
3208;DHT22;1616;52.394;9.756;2022-12-18T02:53:24;-4.70;1.00
3208;DHT22;1616;52.394;9.756;2022-12-18T02:58:47;-4.80;1.00
3208;DHT22;1616;52.394;9.756;2022-12-18T03:03:57;-4.80;1.00
3208;DHT22;1616;52.394;9.756;2022-12-18T03:06:30;-4.90;1.00
3208;DHT22;1616;52.394;9.756;2022-12-18T03:09:00;-4.90;1.00
3208;DHT22;1616;52.394;9.756;2022-12-18T03:11:29;-4.90;1.00
3208;DHT22;1616;52.394;9.756;2022-12-18T03:14:19;-4.90;1.00
3208;DHT22;1616;52.394;9.756;2022-12-18T03:16:49;-4.90;1.00
3208;DHT22;1616;52.394;9.756;2022-12-18T03:19:19;-5.00;1.00
3208;DHT22;1616;52.394;9.756;2022-12-18T03:21:47;-5.00;1.00
3208;DHT22;1616;52.394;9.756;2022-12-18T03:24:15;-5.00;1.00
3208;DHT22;1616;52.394;9.756;2022-12-18T03:26:45;-4.90;1.00
3208;DHT22;1616;52.394;9.756;2022-12-18T03:29:19;-5.00;1.00
3208;DHT22;1616;52.394;9.756;2022-12-18T03:31:51;-5.00;1.00
3208;DHT22;1616;52.394;9.756;2022-12-18T03:34:26;-5.00;1.00
3208;DHT22;1616;52.394;9.756;2022-12-18T03:36:53;-5.00;1.00
3208;DHT22;1616;52.394;9.756;2022-12-18T03:39:19;-5.00;1.00
3208;DHT22;1616;52.394;9.756;2022-12-18T03:42:25;-5.00;1.00
3208;DHT22;1616;52.394;9.756;2022-12-18T03:45:23;-5.10;1.00
3208;DHT22;1616;52.394;9.756;2022-12-18T03:48:11;-5.10;1.00
3208;DHT22;1616;52.394;9.756;2022-12-18T03:50:53;-5.10;1.00
3208;DHT22;1616;52.394;9.756;2022-12-18T03:53:47;-5.20;1.00
3208;DHT22;1616;52.394;9.756;2022-12-18T03:56:17;-5.20;1.00
3208;DHT22;1616;52.394;9.756;2022-12-18T03:58:44;-5.20;1.00
3208;DHT22;1616;52.394;9.756;2022-12-18T04:01:13;-5.30;1.00
3208;DHT22;1616;52.394;9.756;2022-12-18T04:03:42;-5.30;1.00
3208;DHT22;1616;52.394;9.756;2022-12-18T04:06:10;-5.30;1.00
3208;DHT22;1616;52.394;9.756;2022-12-18T04:08:36;-5.40;1.00
3208;DHT22;1616;52.394;9.756;2022-12-18T04:11:03;-5.40;1.00
3208;DHT22;1616;52.394;9.756;2022-12-18T04:13:36;-5.40;1.00
3208;DHT22;1616;52.394;9.756;2022-12-18T04:16:01;-5.40;1.00
3208;DHT22;1616;52.394;9.756;2022-12-18T04:18:27;-5.50;1.00
3208;DHT22;1616;52.394;9.756;2022-12-18T04:20:53;-5.50;1.00
3208;DHT22;1616;52.394;9.756;2022-12-18T04:23:18;-5.50;1.00
3208;DHT22;1616;52.394;9.756;2022-12-18T04:25:46;-5.50;1.00
3208;DHT22;1616;52.394;9.756;2022-12-18T04:28:12;-5.50;1.00
3208;DHT22;1616;52.394;9.756;2022-12-18T04:30:37;-5.60;1.00
3208;DHT22;1616;52.394;9.756;2022-12-18T04:33:03;-5.60;1.00
3208;DHT22;1616;52.394;9.756;2022-12-18T04:35:30;-5.60;1.00
3208;DHT22;1616;52.394;9.756;2022-12-18T04:37:56;-5.60;1.00
3208;DHT22;1616;52.394;9.756;2022-12-18T04:40:21;-5.70;1.00
3208;DHT22;1616;52.394;9.756;2022-12-18T04:42:47;-5.70;1.00
3208;DHT22;1616;52.394;9.756;2022-12-18T04:45:13;-5.70;1.00
3208;DHT22;1616;52.394;9.756;2022-12-18T04:47:38;-5.70;1.00
3208;DHT22;1616;52.394;9.756;2022-12-18T04:50:05;-5.80;1.00
3208;DHT22;1616;52.394;9.756;2022-12-18T04:52:30;-5.80;1.00
3208;DHT22;1616;52.394;9.756;2022-12-18T04:54:56;-5.80;1.00
3208;DHT22;1616;52.394;9.756;2022-12-18T04:57:22;-5.90;1.00
3208;DHT22;1616;52.394;9.756;2022-12-18T04:59:48;-6.00;1.00
3208;DHT22;1616;52.394;9.756;2022-12-18T05:02:14;-6.00;1.00
3208;DHT22;1616;52.394;9.756;2022-12-18T05:04:39;-6.00;1.00
3208;DHT22;1616;52.394;9.756;2022-12-18T05:07:05;-6.10;1.00
3208;DHT22;1616;52.394;9.756;2022-12-18T05:09:31;-6.10;1.00
3208;DHT22;1616;52.394;9.756;2022-12-18T05:11:57;-6.10;1.00
3208;DHT22;1616;52.394;9.756;2022-12-18T05:14:23;-6.20;1.00
3208;DHT22;1616;52.394;9.756;2022-12-18T05:16:48;-6.20;1.00
3208;DHT22;1616;52.394;9.756;2022-12-18T05:19:14;-6.20;1.00
3208;DHT22;1616;52.394;9.756;2022-12-18T05:21:39;-6.20;1.00
3208;DHT22;1616;52.394;9.756;2022-12-18T05:24:05;-6.20;1.00
3208;DHT22;1616;52.394;9.756;2022-12-18T05:26:31;-6.20;1.00
3208;DHT22;1616;52.394;9.756;2022-12-18T05:28:57;-6.20;1.00
3208;DHT22;1616;52.394;9.756;2022-12-18T05:31:23;-6.30;1.00
3208;DHT22;1616;52.394;9.756;2022-12-18T05:33:48;-6.30;1.00
3208;DHT22;1616;52.394;9.756;2022-12-18T05:36:14;-6.30;1.00
3208;DHT22;1616;52.394;9.756;2022-12-18T05:38:40;-6.30;1.00
3208;DHT22;1616;52.394;9.756;2022-12-18T05:41:07;-6.30;1.00
3208;DHT22;1616;52.394;9.756;2022-12-18T05:43:35;-6.30;1.00
3208;DHT22;1616;52.394;9.756;2022-12-18T05:46:09;-6.20;1.00
3208;DHT22;1616;52.394;9.756;2022-12-18T05:48:36;-6.20;1.00
3208;DHT22;1616;52.394;9.756;2022-12-18T05:51:07;-6.20;1.00
3208;DHT22;1616;52.394;9.756;2022-12-18T05:53:34;-6.10;1.00
3208;DHT22;1616;52.394;9.756;2022-12-18T05:56:04;-6.10;1.00
3208;DHT22;1616;52.394;9.756;2022-12-18T05:58:30;-6.10;1.00
3208;DHT22;1616;52.394;9.756;2022-12-18T06:00:56;-6.10;1.00
3208;DHT22;1616;52.394;9.756;2022-12-18T06:03:22;-6.10;1.00
3208;DHT22;1616;52.394;9.756;2022-12-18T06:05:48;-6.10;1.00
3208;DHT22;1616;52.394;9.756;2022-12-18T06:08:14;-6.10;1.00
3208;DHT22;1616;52.394;9.756;2022-12-18T06:10:40;-6.10;1.00
3208;DHT22;1616;52.394;9.756;2022-12-18T06:13:06;-6.10;1.00
3208;DHT22;1616;52.394;9.756;2022-12-18T06:15:32;-6.10;1.00
3208;DHT22;1616;52.394;9.756;2022-12-18T06:17:59;-6.10;1.00
3208;DHT22;1616;52.394;9.756;2022-12-18T06:20:26;-6.10;1.00
3208;DHT22;1616;52.394;9.756;2022-12-18T06:22:52;-6.10;1.00
3208;DHT22;1616;52.394;9.756;2022-12-18T06:25:18;-6.00;1.00
3208;DHT22;1616;52.394;9.756;2022-12-18T06:27:43;-6.00;1.00
3208;DHT22;1616;52.394;9.756;2022-12-18T06:30:10;-6.00;1.00
3208;DHT22;1616;52.394;9.756;2022-12-18T06:32:35;-6.00;1.00
3208;DHT22;1616;52.394;9.756;2022-12-18T06:35:01;-5.90;1.00
3208;DHT22;1616;52.394;9.756;2022-12-18T06:37:27;-6.00;1.00
3208;DHT22;1616;52.394;9.756;2022-12-18T06:39:54;-6.00;1.00
3208;DHT22;1616;52.394;9.756;2022-12-18T06:42:19;-6.00;1.00
3208;DHT22;1616;52.394;9.756;2022-12-18T06:44:45;-6.00;1.00
3208;DHT22;1616;52.394;9.756;2022-12-18T06:47:10;-6.00;1.00
3208;DHT22;1616;52.394;9.756;2022-12-18T06:49:36;-6.00;1.00
3208;DHT22;1616;52.394;9.756;2022-12-18T06:52:01;-5.90;1.00
3208;DHT22;1616;52.394;9.756;2022-12-18T06:54:27;-5.90;1.00
3208;DHT22;1616;52.394;9.756;2022-12-18T06:56:53;-5.90;1.00
3208;DHT22;1616;52.394;9.756;2022-12-18T06:59:19;-5.90;1.00
3208;DHT22;1616;52.394;9.756;2022-12-18T07:01:44;-5.80;1.00
3208;DHT22;1616;52.394;9.756;2022-12-18T07:04:10;-5.80;1.00
3208;DHT22;1616;52.394;9.756;2022-12-18T07:06:36;-5.70;1.00
3208;DHT22;1616;52.394;9.756;2022-12-18T07:09:02;-5.80;1.00
3208;DHT22;1616;52.394;9.756;2022-12-18T07:11:27;-5.70;1.00
3208;DHT22;1616;52.394;9.756;2022-12-18T07:13:53;-5.70;1.00
3208;DHT22;1616;52.394;9.756;2022-12-18T07:16:20;-5.70;1.00
3208;DHT22;1616;52.394;9.756;2022-12-18T07:18:46;-5.70;1.00
3208;DHT22;1616;52.394;9.756;2022-12-18T07:21:14;-5.70;1.00
3208;DHT22;1616;52.394;9.756;2022-12-18T07:23:40;-5.70;1.00
3208;DHT22;1616;52.394;9.756;2022-12-18T07:26:11;-5.80;1.00
3208;DHT22;1616;52.394;9.756;2022-12-18T07:28:38;-5.80;1.00
3208;DHT22;1616;52.394;9.756;2022-12-18T07:31:12;-5.80;1.00
3208;DHT22;1616;52.394;9.756;2022-12-18T07:33:38;-5.70;1.00
3208;DHT22;1616;52.394;9.756;2022-12-18T07:36:06;-5.70;1.00
3208;DHT22;1616;52.394;9.756;2022-12-18T07:38:34;-5.70;1.00
3208;DHT22;1616;52.394;9.756;2022-12-18T07:41:04;-5.70;1.00
3208;DHT22;1616;52.394;9.756;2022-12-18T07:43:31;-5.70;1.00
3208;DHT22;1616;52.394;9.756;2022-12-18T07:45:57;-5.70;1.00
3208;DHT22;1616;52.394;9.756;2022-12-18T07:48:22;-5.70;1.00
3208;DHT22;1616;52.394;9.756;2022-12-18T07:50:48;-5.60;1.00
3208;DHT22;1616;52.394;9.756;2022-12-18T07:53:14;-5.60;1.00
3208;DHT22;1616;52.394;9.756;2022-12-18T07:55:40;-5.60;1.00
3208;DHT22;1616;52.394;9.756;2022-12-18T07:58:07;-5.50;1.00
3208;DHT22;1616;52.394;9.756;2022-12-18T08:00:33;-5.40;1.00
3208;DHT22;1616;52.394;9.756;2022-12-18T08:02:59;-5.00;1.00
3208;DHT22;1616;52.394;9.756;2022-12-18T08:05:24;-4.30;1.00
3208;DHT22;1616;52.394;9.756;2022-12-18T08:07:50;-3.70;1.00
3208;DHT22;1616;52.394;9.756;2022-12-18T08:10:16;-3.10;1.00
3208;DHT22;1616;52.394;9.756;2022-12-18T08:12:42;-2.80;1.00
3208;DHT22;1616;52.394;9.756;2022-12-18T08:15:08;-2.50;1.00
3208;DHT22;1616;52.394;9.756;2022-12-18T08:17:34;-2.00;1.00
3208;DHT22;1616;52.394;9.756;2022-12-18T08:20:00;-1.40;1.00
3208;DHT22;1616;52.394;9.756;2022-12-18T08:22:26;-0.90;1.00
3208;DHT22;1616;52.394;9.756;2022-12-18T08:24:51;-0.40;1.00
3208;DHT22;1616;52.394;9.756;2022-12-18T08:27:17;0.10;1.00
3208;DHT22;1616;52.394;9.756;2022-12-18T08:29:43;0.60;1.00
3208;DHT22;1616;52.394;9.756;2022-12-18T08:32:09;1.00;1.00
3208;DHT22;1616;52.394;9.756;2022-12-18T08:34:34;1.50;1.00
3208;DHT22;1616;52.394;9.756;2022-12-18T08:37:00;2.00;1.00
3208;DHT22;1616;52.394;9.756;2022-12-18T08:39:26;2.50;1.00
3208;DHT22;1616;52.394;9.756;2022-12-18T08:41:52;3.00;1.00
3208;DHT22;1616;52.394;9.756;2022-12-18T08:44:36;3.40;1.00
3208;DHT22;1616;52.394;9.756;2022-12-18T08:47:08;3.90;1.00
3208;DHT22;1616;52.394;9.756;2022-12-18T08:49:35;4.30;1.00
3208;DHT22;1616;52.394;9.756;2022-12-18T08:52:00;4.60;1.00
3208;DHT22;1616;52.394;9.756;2022-12-18T08:54:28;4.80;1.00
3208;DHT22;1616;52.394;9.756;2022-12-18T08:56:54;5.20;1.00
3208;DHT22;1616;52.394;9.756;2022-12-18T08:59:20;5.40;1.00
3208;DHT22;1616;52.394;9.756;2022-12-18T09:01:46;5.60;1.00
3208;DHT22;1616;52.394;9.756;2022-12-18T09:04:13;5.90;1.00
3208;DHT22;1616;52.394;9.756;2022-12-18T09:06:39;6.20;1.00
3208;DHT22;1616;52.394;9.756;2022-12-18T09:09:05;6.50;1.00
3208;DHT22;1616;52.394;9.756;2022-12-18T09:11:32;6.80;1.00
3208;DHT22;1616;52.394;9.756;2022-12-18T09:14:00;7.20;1.00
3208;DHT22;1616;52.394;9.756;2022-12-18T09:16:27;7.60;1.00
3208;DHT22;1616;52.394;9.756;2022-12-18T09:18:57;7.90;1.00
3208;DHT22;1616;52.394;9.756;2022-12-18T09:21:27;8.10;1.00
3208;DHT22;1616;52.394;9.756;2022-12-18T09:23:54;8.10;1.00
3208;DHT22;1616;52.394;9.756;2022-12-18T09:26:22;8.10;1.00
3208;DHT22;1616;52.394;9.756;2022-12-18T09:28:49;8.10;1.00
3208;DHT22;1616;52.394;9.756;2022-12-18T09:31:15;8.00;1.00
3208;DHT22;1616;52.394;9.756;2022-12-18T09:33:41;7.80;1.00
3208;DHT22;1616;52.394;9.756;2022-12-18T09:36:09;7.50;1.00
3208;DHT22;1616;52.394;9.756;2022-12-18T09:38:36;7.20;1.00
3208;DHT22;1616;52.394;9.756;2022-12-18T09:44:32;6.90;1.00
3208;DHT22;1616;52.394;9.756;2022-12-18T09:47:14;6.90;1.00
3208;DHT22;1616;52.394;9.756;2022-12-18T09:49:44;7.20;1.00
3208;DHT22;1616;52.394;9.756;2022-12-18T09:52:27;7.60;1.00
3208;DHT22;1616;52.394;9.756;2022-12-18T09:55:08;8.00;1.00
3208;DHT22;1616;52.394;9.756;2022-12-18T09:57:40;8.30;1.00
3208;DHT22;1616;52.394;9.756;2022-12-18T10:00:22;8.60;1.00
3208;DHT22;1616;52.394;9.756;2022-12-18T10:02:53;8.80;1.00
3208;DHT22;1616;52.394;9.756;2022-12-18T10:08:53;8.70;1.00
3208;DHT22;1616;52.394;9.756;2022-12-18T10:11:03;8.30;1.00
3208;DHT22;1616;52.394;9.756;2022-12-18T10:13:57;7.80;1.00
3208;DHT22;1616;52.394;9.756;2022-12-18T10:16:29;7.30;1.00
3208;DHT22;1616;52.394;9.756;2022-12-18T10:21:44;6.60;1.00
3208;DHT22;1616;52.394;9.756;2022-12-18T10:26:41;6.70;1.00
3208;DHT22;1616;52.394;9.756;2022-12-18T10:29:14;6.90;1.00
3208;DHT22;1616;52.394;9.756;2022-12-18T10:31:40;7.20;1.00
3208;DHT22;1616;52.394;9.756;2022-12-18T10:34:13;7.50;1.00
3208;DHT22;1616;52.394;9.756;2022-12-18T10:36:39;7.60;1.00
3208;DHT22;1616;52.394;9.756;2022-12-18T10:39:23;7.50;1.00
3208;DHT22;1616;52.394;9.756;2022-12-18T10:41:49;7.40;1.00
3208;DHT22;1616;52.394;9.756;2022-12-18T10:44:19;7.40;1.00
3208;DHT22;1616;52.394;9.756;2022-12-18T10:46:50;7.50;1.00
3208;DHT22;1616;52.394;9.756;2022-12-18T10:49:38;7.60;1.00
3208;DHT22;1616;52.394;9.756;2022-12-18T10:52:14;7.80;1.00
3208;DHT22;1616;52.394;9.756;2022-12-18T10:54:51;8.00;1.00
3208;DHT22;1616;52.394;9.756;2022-12-18T10:59:57;8.80;1.00
3208;DHT22;1616;52.394;9.756;2022-12-18T11:02:35;9.00;1.00
3208;DHT22;1616;52.394;9.756;2022-12-18T11:05:02;8.90;1.00
3208;DHT22;1616;52.394;9.756;2022-12-18T11:07:48;8.80;1.00
3208;DHT22;1616;52.394;9.756;2022-12-18T11:10:17;8.50;1.00
3208;DHT22;1616;52.394;9.756;2022-12-18T11:12:43;8.30;1.00
3208;DHT22;1616;52.394;9.756;2022-12-18T11:15:18;8.30;1.00
3208;DHT22;1616;52.394;9.756;2022-12-18T11:17:48;8.30;1.00
3208;DHT22;1616;52.394;9.756;2022-12-18T11:23:00;7.70;1.00
3208;DHT22;1616;52.394;9.756;2022-12-18T11:25:27;7.50;1.00
3208;DHT22;1616;52.394;9.756;2022-12-18T11:28:03;7.20;1.00
3208;DHT22;1616;52.394;9.756;2022-12-18T11:33:11;6.40;1.00
3208;DHT22;1616;52.394;9.756;2022-12-18T11:38:24;6.50;1.00
3208;DHT22;1616;52.394;9.756;2022-12-18T11:41:04;7.10;1.00
3208;DHT22;1616;52.394;9.756;2022-12-18T11:43:49;7.70;1.00
3208;DHT22;1616;52.394;9.756;2022-12-18T11:46:24;8.30;1.00
3208;DHT22;1616;52.394;9.756;2022-12-18T11:49:22;8.90;1.00
3208;DHT22;1616;52.394;9.756;2022-12-18T11:52:26;9.30;1.00
3208;DHT22;1616;52.394;9.756;2022-12-18T11:54:58;9.50;1.00
3208;DHT22;1616;52.394;9.756;2022-12-18T12:00:38;9.50;1.00
3208;DHT22;1616;52.394;9.756;2022-12-18T12:09:07;9.70;1.00
3208;DHT22;1616;52.394;9.756;2022-12-18T12:11:38;9.60;1.00
3208;DHT22;1616;52.394;9.756;2022-12-18T12:14:45;9.40;1.00
3208;DHT22;1616;52.394;9.756;2022-12-18T12:17:32;8.90;1.00
3208;DHT22;1616;52.394;9.756;2022-12-18T12:23:06;7.50;1.00
3208;DHT22;1616;52.394;9.756;2022-12-18T12:25:46;6.70;1.00
3208;DHT22;1616;52.394;9.756;2022-12-18T12:31:33;5.50;1.00
3208;DHT22;1616;52.394;9.756;2022-12-18T12:34:23;4.90;1.00
3208;DHT22;1616;52.394;9.756;2022-12-18T12:39:39;4.00;1.00
3208;DHT22;1616;52.394;9.756;2022-12-18T12:42:12;3.70;1.00
3208;DHT22;1616;52.394;9.756;2022-12-18T12:44:59;3.30;1.00
3208;DHT22;1616;52.394;9.756;2022-12-18T12:47:31;3.00;1.00
3208;DHT22;1616;52.394;9.756;2022-12-18T12:50:01;2.70;1.00
3208;DHT22;1616;52.394;9.756;2022-12-18T12:52:37;2.50;1.00
3208;DHT22;1616;52.394;9.756;2022-12-18T12:55:12;2.30;1.00
3208;DHT22;1616;52.394;9.756;2022-12-18T13:00:19;2.00;1.00
3208;DHT22;1616;52.394;9.756;2022-12-18T13:03:11;1.90;1.00
3208;DHT22;1616;52.394;9.756;2022-12-18T13:05:57;1.80;1.00
3208;DHT22;1616;52.394;9.756;2022-12-18T13:08:30;1.70;1.00
3208;DHT22;1616;52.394;9.756;2022-12-18T13:10:57;1.60;1.00
3208;DHT22;1616;52.394;9.756;2022-12-18T13:13:55;1.50;1.00
3208;DHT22;1616;52.394;9.756;2022-12-18T13:16:25;1.50;1.00
3208;DHT22;1616;52.394;9.756;2022-12-18T13:18:57;1.40;1.00
3208;DHT22;1616;52.394;9.756;2022-12-18T13:21:32;1.40;1.00
3208;DHT22;1616;52.394;9.756;2022-12-18T13:24:22;1.30;1.00
3208;DHT22;1616;52.394;9.756;2022-12-18T13:26:49;1.20;1.00
3208;DHT22;1616;52.394;9.756;2022-12-18T13:29:44;1.20;1.00
3208;DHT22;1616;52.394;9.756;2022-12-18T13:32:25;1.10;1.00
3208;DHT22;1616;52.394;9.756;2022-12-18T13:37:54;1.10;1.00
3208;DHT22;1616;52.394;9.756;2022-12-18T13:43:28;1.00;1.00
3208;DHT22;1616;52.394;9.756;2022-12-18T13:46:20;1.00;1.00
3208;DHT22;1616;52.394;9.756;2022-12-18T13:49:05;0.90;1.00
3208;DHT22;1616;52.394;9.756;2022-12-18T13:51:50;0.90;1.00
3208;DHT22;1616;52.394;9.756;2022-12-18T13:54:30;0.70;1.00
3208;DHT22;1616;52.394;9.756;2022-12-18T13:56:59;0.60;1.00
3208;DHT22;1616;52.394;9.756;2022-12-18T13:59:39;0.60;1.00
3208;DHT22;1616;52.394;9.756;2022-12-18T14:02:24;0.50;1.00
3208;DHT22;1616;52.394;9.756;2022-12-18T14:04:51;0.40;1.00
3208;DHT22;1616;52.394;9.756;2022-12-18T14:09:47;0.30;1.00
3208;DHT22;1616;52.394;9.756;2022-12-18T14:12:22;0.20;1.00
3208;DHT22;1616;52.394;9.756;2022-12-18T14:15:23;0.20;1.00
3208;DHT22;1616;52.394;9.756;2022-12-18T14:17:57;0.10;1.00
3208;DHT22;1616;52.394;9.756;2022-12-18T14:20:26;0.00;1.00
3208;DHT22;1616;52.394;9.756;2022-12-18T14:22:52;0.00;1.00
3208;DHT22;1616;52.394;9.756;2022-12-18T14:25:26;-0.10;1.00
3208;DHT22;1616;52.394;9.756;2022-12-18T14:28:13;-0.20;1.00
3208;DHT22;1616;52.394;9.756;2022-12-18T14:30:42;-0.30;1.00
3208;DHT22;1616;52.394;9.756;2022-12-18T14:33:16;-0.40;1.00
3208;DHT22;1616;52.394;9.756;2022-12-18T14:38:36;-0.50;1.00
3208;DHT22;1616;52.394;9.756;2022-12-18T14:41:10;-0.60;1.00
3208;DHT22;1616;52.394;9.756;2022-12-18T14:43:38;-0.70;1.00
3208;DHT22;1616;52.394;9.756;2022-12-18T14:46:25;-0.70;1.00
3208;DHT22;1616;52.394;9.756;2022-12-18T14:48:51;-0.80;1.00
3208;DHT22;1616;52.394;9.756;2022-12-18T14:53:47;-0.90;1.00
3208;DHT22;1616;52.394;9.756;2022-12-18T14:56:21;-1.00;1.00
3208;DHT22;1616;52.394;9.756;2022-12-18T14:58:49;-1.00;1.00
3208;DHT22;1616;52.394;9.756;2022-12-18T15:01:21;-1.10;1.00
3208;DHT22;1616;52.394;9.756;2022-12-18T15:03:48;-1.10;1.00
3208;DHT22;1616;52.394;9.756;2022-12-18T15:06:34;-1.20;1.00
3208;DHT22;1616;52.394;9.756;2022-12-18T15:09:03;-1.30;1.00
3208;DHT22;1616;52.394;9.756;2022-12-18T15:16:55;-1.40;1.00
3208;DHT22;1616;52.394;9.756;2022-12-18T15:19:24;-1.50;1.00
3208;DHT22;1616;52.394;9.756;2022-12-18T15:21:57;-1.50;1.00
3208;DHT22;1616;52.394;9.756;2022-12-18T15:24:27;-1.50;1.00
3208;DHT22;1616;52.394;9.756;2022-12-18T15:26:55;-1.50;1.00
3208;DHT22;1616;52.394;9.756;2022-12-18T15:29:22;-1.50;1.00
3208;DHT22;1616;52.394;9.756;2022-12-18T15:32:02;-1.50;1.00
3208;DHT22;1616;52.394;9.756;2022-12-18T15:34:28;-1.60;1.00
3208;DHT22;1616;52.394;9.756;2022-12-18T15:36:54;-1.50;1.00
3208;DHT22;1616;52.394;9.756;2022-12-18T15:39:20;-1.50;1.00
3208;DHT22;1616;52.394;9.756;2022-12-18T15:41:46;-1.60;1.00
3208;DHT22;1616;52.394;9.756;2022-12-18T15:44:30;-1.60;1.00
3208;DHT22;1616;52.394;9.756;2022-12-18T15:46:57;-1.50;1.00
3208;DHT22;1616;52.394;9.756;2022-12-18T15:49:23;-1.60;1.00
3208;DHT22;1616;52.394;9.756;2022-12-18T15:51:54;-1.80;1.00
3208;DHT22;1616;52.394;9.756;2022-12-18T15:54:20;-1.60;1.00
3208;DHT22;1616;52.394;9.756;2022-12-18T15:57:08;-1.70;1.00
3208;DHT22;1616;52.394;9.756;2022-12-18T15:59:53;-1.70;1.00
3208;DHT22;1616;52.394;9.756;2022-12-18T16:02:20;-1.70;1.00
3208;DHT22;1616;52.394;9.756;2022-12-18T16:04:49;-1.70;1.00
3208;DHT22;1616;52.394;9.756;2022-12-18T16:07:15;-1.90;1.00
3208;DHT22;1616;52.394;9.756;2022-12-18T16:09:41;-1.80;1.00
3208;DHT22;1616;52.394;9.756;2022-12-18T16:12:15;-1.80;1.00
3208;DHT22;1616;52.394;9.756;2022-12-18T16:14:41;-1.80;1.00
3208;DHT22;1616;52.394;9.756;2022-12-18T16:17:10;-1.80;1.00
3208;DHT22;1616;52.394;9.756;2022-12-18T16:19:36;-1.90;1.00
3208;DHT22;1616;52.394;9.756;2022-12-18T16:22:01;-1.80;1.00
3208;DHT22;1616;52.394;9.756;2022-12-18T16:24:29;-1.80;1.00
3208;DHT22;1616;52.394;9.756;2022-12-18T16:26:57;-1.80;1.00
3208;DHT22;1616;52.394;9.756;2022-12-18T16:29:24;-1.80;1.00
3208;DHT22;1616;52.394;9.756;2022-12-18T16:31:53;-1.70;1.00
3208;DHT22;1616;52.394;9.756;2022-12-18T16:34:20;-1.70;1.00
3208;DHT22;1616;52.394;9.756;2022-12-18T16:36:49;-1.70;1.00
3208;DHT22;1616;52.394;9.756;2022-12-18T16:39:16;-1.70;1.00
3208;DHT22;1616;52.394;9.756;2022-12-18T16:41:41;-1.70;1.00
3208;DHT22;1616;52.394;9.756;2022-12-18T16:44:08;-1.70;1.00
3208;DHT22;1616;52.394;9.756;2022-12-18T16:46:34;-1.60;1.00
3208;DHT22;1616;52.394;9.756;2022-12-18T16:49:00;-1.60;1.00
3208;DHT22;1616;52.394;9.756;2022-12-18T16:51:26;-1.60;1.00
3208;DHT22;1616;52.394;9.756;2022-12-18T16:53:55;-1.60;1.00
3208;DHT22;1616;52.394;9.756;2022-12-18T16:56:22;-1.60;1.00
3208;DHT22;1616;52.394;9.756;2022-12-18T16:58:56;-1.50;1.00
3208;DHT22;1616;52.394;9.756;2022-12-18T17:01:24;-1.50;1.00
3208;DHT22;1616;52.394;9.756;2022-12-18T17:04:01;-1.50;1.00
3208;DHT22;1616;52.394;9.756;2022-12-18T17:06:29;-1.50;1.00
3208;DHT22;1616;52.394;9.756;2022-12-18T17:08:56;-1.40;1.00
3208;DHT22;1616;52.394;9.756;2022-12-18T17:11:26;-1.40;1.00
3208;DHT22;1616;52.394;9.756;2022-12-18T17:13:52;-1.40;1.00
3208;DHT22;1616;52.394;9.756;2022-12-18T17:16:18;-1.40;1.00
3208;DHT22;1616;52.394;9.756;2022-12-18T17:18:44;-1.30;1.00
3208;DHT22;1616;52.394;9.756;2022-12-18T17:21:11;-1.30;1.00
3208;DHT22;1616;52.394;9.756;2022-12-18T17:23:39;-1.30;1.00
3208;DHT22;1616;52.394;9.756;2022-12-18T17:26:06;-1.30;1.00
3208;DHT22;1616;52.394;9.756;2022-12-18T17:28:33;-1.30;1.00
3208;DHT22;1616;52.394;9.756;2022-12-18T17:31:00;-1.20;1.00
3208;DHT22;1616;52.394;9.756;2022-12-18T17:33:26;-1.20;1.00
3208;DHT22;1616;52.394;9.756;2022-12-18T17:35:52;-1.20;1.00
3208;DHT22;1616;52.394;9.756;2022-12-18T17:38:18;-1.20;1.00
3208;DHT22;1616;52.394;9.756;2022-12-18T17:40:43;-1.20;1.00
3208;DHT22;1616;52.394;9.756;2022-12-18T17:43:10;-1.10;1.00
3208;DHT22;1616;52.394;9.756;2022-12-18T17:45:37;-1.10;1.00
3208;DHT22;1616;52.394;9.756;2022-12-18T17:48:04;-1.10;1.00
3208;DHT22;1616;52.394;9.756;2022-12-18T17:50:31;-1.00;1.00
3208;DHT22;1616;52.394;9.756;2022-12-18T17:52:57;-1.00;1.00
3208;DHT22;1616;52.394;9.756;2022-12-18T17:55:24;-1.00;1.00
3208;DHT22;1616;52.394;9.756;2022-12-18T17:57:49;-1.00;1.00
3208;DHT22;1616;52.394;9.756;2022-12-18T18:00:15;-1.00;1.00
3208;DHT22;1616;52.394;9.756;2022-12-18T18:02:41;-1.00;1.00
3208;DHT22;1616;52.394;9.756;2022-12-18T18:05:07;-1.00;1.00